• Join FlightAware (Why Join?)
  • Login
  • US Flag 
08:36AM EDT


 

Airport Tracker/Info


-or-


 

Live Flight TrackerFlight Track Log ✈ SWA862 ✈ 01-Sep-2013 ✈ KLAS - KPHX

Flight Track Log - Related Links

Times and Time Zones

All times are in EDT time to prevent confusion due to time zone crossing. See the SWA862 flight status page for this flight to view local times or setup timezone preferences in your user account.

Time Position Orientation Groundspeed Altitude Reporting Facility
EDT Latitude Longitude Course Direction KTS MPH feet Rate Location/Type
10:53PM 36.0764 -115.0403 89° East 232 267 4,900  Level Los Angeles Center
10:54PM 36.0758 -114.9836 91° East 260 299 6,500 2,760 Climbing Los Angeles Center
10:55PM 36.0644 -114.8808 98° East 299 344 9,800 2,940 Climbing Los Angeles Center
10:56PM 36.0492 -114.7689 100° East 330 380 12,500 2,880 Climbing Los Angeles Center
10:57PM 36.0311 -114.6469 100° East 357 411 15,700 2,880 Climbing Los Angeles Center
10:59PM 35.9939 -114.3878 100° East 383 441 21,300 2,760 Climbing Albuquerque Center
11:00PM 35.9331 -114.2442 118° Southeast 392 451 24,200 2,460 Climbing Albuquerque Center
11:01PM 35.8606 -114.1369 130° Southeast 401 461 26,300 2,220 Climbing Albuquerque Center
11:02PM 35.7861 -114.0286 130° Southeast 408 470 28,700 1,320 Climbing Albuquerque Center
11:03PM 35.7117 -113.9194 130° Southeast 413 475 29,000 120 Climbing Albuquerque Center
11:04PM 35.6361 -113.8069 130° Southeast 421 484 29,000  Level Albuquerque Center
11:05PM 35.5608 -113.6981 130° Southeast 424 488 29,000  Level Los Angeles Center
11:06PM 35.4850 -113.5908 131° Southeast 420 483 29,000  Level Los Angeles Center
11:07PM 35.4103 -113.4825 130° Southeast 420 483 29,000  Level Los Angeles Center
11:08PM 35.3342 -113.3744 131° Southeast 423 487 29,000  Level Los Angeles Center
11:09PM 35.2542 -113.2600 131° Southeast 421 484 29,000  Level Los Angeles Center
11:10PM 35.1614 -113.1272 130° Southeast 426 490 29,000  Level Los Angeles Center
11:11PM 35.0903 -113.0328 133° Southeast 424 488 29,000  Level Los Angeles Center
11:12PM 34.9961 -112.9475 143° Southeast 428 493 29,000  Level Los Angeles Center
11:13PM 34.9014 -112.8631 144° Southeast 424 488 29,000  Level Albuquerque Center
11:14PM 34.8072 -112.7783 144° Southeast 423 487 29,000  Level Albuquerque Center
11:15PM 34.7136 -112.6942 144° Southeast 422 486 29,000 -240 Level Albuquerque Center
11:16PM 34.6194 -112.6092 143° Southeast 424 488 28,600 -1,320 Descending Albuquerque Center
11:17PM 34.5269 -112.5269 144° Southeast 418 481 26,400 -2,340 Descending Albuquerque Center
11:18PM 34.4303 -112.4419 144° Southeast 406 467 24,000 -2,340 Descending Albuquerque Center
11:19PM 34.3422 -112.3636 144° Southeast 396 456 21,700 -2,220 Descending Albuquerque Center
11:20PM 34.2589 -112.2900 144° Southeast 380 437 19,600 -2,160 Descending Albuquerque Center
11:21PM 34.1775 -112.2178 144° Southeast 368 423 17,400 -1,980 Descending Albuquerque Center
11:22PM 34.0989 -112.1475 143° Southeast 355 409 15,700 -1,380 Descending Albuquerque Center
11:23PM 34.0142 -112.1172 163° South 324 373 14,600 -1,260 Descending Albuquerque Center
11:24PM 33.9311 -112.0961 168° South 309 356 13,200 -1,440 Descending Albuquerque Center
11:25PM 33.8506 -112.0767 169° South 300 345 11,700 -1,500 Descending Albuquerque Center
11:26PM 33.7706 -112.0558 168° South 298 343 10,200 -840 Descending Albuquerque Center
11:27PM 33.6761 -112.0386 171° South 288 331 10,000 -480 Descending Albuquerque Center
11:28PM 33.6167 -112.0333 176° South 278 320 9,400 -900 Descending Phoenix TRACON
11:29PM 33.5500 -112.0000 157° South 252 290 8,600 -1,020 Descending Phoenix TRACON
11:30PM 33.5333 -111.9333 107° East 247 284 7,400 -1,200 Descending Phoenix TRACON
11:31PM 33.5333 -111.8500 90° East 249 287 6,100 -1,200 Descending Phoenix TRACON
11:32PM 33.4833 -111.8000 140° Southeast 244 281 4,900 -1,020 Descending Phoenix TRACON
11:33PM 33.4500 -111.8500 231° Southwest 175 201 4,100 -1,200 Descending Phoenix TRACON
11:34PM 33.4333 -111.9000 248° West 162 186 2,700 -1,200 Descending Phoenix TRACON
11:35PM 33.4333 -111.9500 270° West 144 166 1,800 -840 Descending Phoenix TRACON